createdAt,value
2022-09-21T00:01:09.647Z,9.81
2022-09-21T00:03:37.024Z,9.68
2022-09-21T00:06:08.415Z,9.40
2022-09-21T00:08:35.072Z,9.74
2022-09-21T00:11:03.558Z,9.57
2022-09-21T00:13:33.129Z,9.75
2022-09-21T00:15:59.787Z,9.76
2022-09-21T00:18:26.536Z,9.63
2022-09-21T00:20:53.044Z,9.61
2022-09-21T00:23:20.436Z,9.52
2022-09-21T00:25:47.089Z,9.32
2022-09-21T00:28:13.554Z,9.55
2022-09-21T00:30:39.997Z,9.45
2022-09-21T00:33:06.971Z,9.27
2022-09-21T00:35:33.821Z,9.52
2022-09-21T00:38:02.445Z,9.47
2022-09-21T00:40:29.912Z,9.49
2022-09-21T00:43:16.923Z,9.50
2022-09-21T00:45:44.132Z,9.70
2022-09-21T00:48:10.753Z,9.60
2022-09-21T00:50:41.477Z,9.60
2022-09-21T00:53:08.169Z,9.64
2022-09-21T00:55:39.895Z,9.75
2022-09-21T00:58:10.124Z,9.40
2022-09-21T01:00:37.455Z,9.44
2022-09-21T01:03:04.952Z,9.51
2022-09-21T01:05:31.585Z,9.42
2022-09-21T01:08:02.087Z,9.29
2022-09-21T01:10:33.099Z,9.19
2022-09-21T01:13:25.407Z,9.31
2022-09-21T01:16:01.553Z,9.30
2022-09-21T01:18:35.310Z,9.49
2022-09-21T01:21:21.686Z,9.08
2022-09-21T01:24:21.259Z,9.15
2022-09-21T01:27:09.305Z,9.20
2022-09-21T01:29:38.419Z,9.00
2022-09-21T01:32:15.501Z,9.19
2022-09-21T01:34:49.327Z,9.12
2022-09-21T01:37:26.832Z,9.18
2022-09-21T01:39:56.695Z,9.07
2022-09-21T01:42:24.990Z,8.93
2022-09-21T01:44:51.951Z,8.82
2022-09-21T01:47:18.778Z,8.79
2022-09-21T01:49:49.131Z,9.02
2022-09-21T01:52:21.550Z,8.81
2022-09-21T01:54:52.098Z,8.90
2022-09-21T01:57:36.728Z,8.86
2022-09-21T02:00:05.809Z,8.86
2022-09-21T02:02:41.761Z,8.67
2022-09-21T02:05:08.694Z,8.73
2022-09-21T02:07:35.957Z,8.67
2022-09-21T02:10:03.098Z,8.86
2022-09-21T02:12:32.174Z,8.70
2022-09-21T02:14:59.895Z,8.82
2022-09-21T02:17:50.212Z,8.79
2022-09-21T02:20:30.564Z,8.78
2022-09-21T02:23:14.271Z,8.60
2022-09-21T02:25:43.817Z,8.58
2022-09-21T02:28:27.260Z,8.63
2022-09-21T02:31:17.883Z,8.55
2022-09-21T02:33:59.347Z,8.77
2022-09-21T02:36:35.627Z,8.63
2022-09-21T02:39:11.516Z,8.61
2022-09-21T02:41:41.517Z,8.66
2022-09-21T02:44:13.176Z,8.52
2022-09-21T02:46:49.148Z,8.49
2022-09-21T02:49:26.341Z,8.65
2022-09-21T02:51:56.792Z,8.54
2022-09-21T02:54:27.057Z,8.66
2022-09-21T02:56:54.533Z,8.38
2022-09-21T02:59:23.678Z,8.51
2022-09-21T03:01:50.650Z,8.46
2022-09-21T03:04:17.631Z,8.54
2022-09-21T03:06:44.076Z,8.47
2022-09-21T03:09:10.542Z,8.45
2022-09-21T03:11:36.983Z,8.42
2022-09-21T03:14:08.618Z,8.25
2022-09-21T03:16:36.252Z,8.48
2022-09-21T03:19:02.797Z,8.27
2022-09-21T03:21:29.754Z,8.43
2022-09-21T03:23:56.224Z,8.51
2022-09-21T03:26:22.898Z,8.38
2022-09-21T03:28:50.324Z,8.28
2022-09-21T03:31:17.111Z,8.27
2022-09-21T03:33:43.649Z,8.31
2022-09-21T03:36:10.355Z,8.29
2022-09-21T03:38:37.803Z,8.20
2022-09-21T03:41:05.113Z,8.32
2022-09-21T03:43:32.227Z,8.01
2022-09-21T03:45:58.786Z,8.19
2022-09-21T03:48:25.293Z,8.16
2022-09-21T03:50:51.913Z,8.08
2022-09-21T03:53:18.374Z,8.12
2022-09-21T03:55:44.870Z,8.21
2022-09-21T03:58:11.315Z,8.19
2022-09-21T04:00:39.207Z,8.11
2022-09-21T04:03:05.732Z,8.18
2022-09-21T04:05:32.442Z,8.22
2022-09-21T04:07:58.926Z,8.32
2022-09-21T04:10:29.295Z,8.39
2022-09-21T04:13:01.263Z,8.60
2022-09-21T04:15:28.547Z,8.47
2022-09-21T04:17:55.476Z,8.50
2022-09-21T04:20:22.291Z,8.34
2022-09-21T04:22:48.944Z,8.33
2022-09-21T04:25:16.183Z,8.33
2022-09-21T04:27:42.848Z,8.28
2022-09-21T04:30:12.149Z,8.28
2022-09-21T04:32:38.938Z,8.31
2022-09-21T04:35:06.118Z,8.29
2022-09-21T04:37:32.591Z,8.22
2022-09-21T04:39:59.129Z,8.27
2022-09-21T04:42:27.603Z,8.28
2022-09-21T04:44:54.151Z,8.31
2022-09-21T04:47:23.643Z,8.25
2022-09-21T04:49:50.273Z,8.23
2022-09-21T04:52:19.158Z,8.29
2022-09-21T04:54:47.097Z,7.98
2022-09-21T04:57:14.796Z,8.13
2022-09-21T04:59:41.288Z,8.23
2022-09-21T05:02:07.775Z,8.22
2022-09-21T05:04:34.249Z,8.18
2022-09-21T05:07:00.845Z,8.23
2022-09-21T05:09:45.965Z,8.22
2022-09-21T05:12:12.428Z,8.25
2022-09-21T05:14:38.889Z,8.35
2022-09-21T05:17:05.402Z,8.33
2022-09-21T05:19:31.900Z,8.30
2022-09-21T05:21:58.369Z,8.27
2022-09-21T05:24:24.875Z,8.26
2022-09-21T05:26:51.356Z,8.44
2022-09-21T05:29:18.204Z,8.40
2022-09-21T05:31:56.166Z,8.36
2022-09-21T05:34:44.124Z,8.52
2022-09-21T05:37:37.854Z,8.41
2022-09-21T05:40:05.672Z,8.38
2022-09-21T05:42:32.797Z,8.45
2022-09-21T05:44:59.678Z,8.51
2022-09-21T05:47:40.127Z,8.59
2022-09-21T05:50:28.245Z,8.56
2022-09-21T05:53:16.299Z,8.67
2022-09-21T05:55:55.558Z,8.81
2022-09-21T05:58:40.602Z,8.71
2022-09-21T06:01:18.117Z,8.79
2022-09-21T06:03:44.956Z,8.84
2022-09-21T06:06:11.428Z,8.93
2022-09-21T06:08:37.908Z,8.99
2022-09-21T06:11:04.526Z,9.09
2022-09-21T06:13:31.204Z,9.11
2022-09-21T06:15:58.543Z,8.95
2022-09-21T06:18:24.990Z,8.82
2022-09-21T06:20:51.484Z,8.87
2022-09-21T06:23:24.169Z,9.03
2022-09-21T06:25:58.184Z,9.15
2022-09-21T06:28:25.533Z,9.31
2022-09-21T06:30:53.395Z,9.46
2022-09-21T06:33:21.307Z,9.76
2022-09-21T06:35:59.177Z,9.79
2022-09-21T06:38:26.836Z,9.83
2022-09-21T06:40:53.887Z,10.03
2022-09-21T06:43:20.433Z,10.27
2022-09-21T06:45:54.836Z,10.58
2022-09-21T06:48:21.808Z,10.46
2022-09-21T06:50:48.611Z,10.67
2022-09-21T06:53:15.517Z,10.81
2022-09-21T06:55:42.222Z,10.93
2022-09-21T06:58:08.729Z,11.08
2022-09-21T07:00:35.586Z,11.30
2022-09-21T07:03:02.048Z,11.40
2022-09-21T07:05:28.515Z,11.56
2022-09-21T07:07:59.158Z,11.60
2022-09-21T07:10:26.358Z,11.68
2022-09-21T07:12:52.980Z,11.62
2022-09-21T07:15:19.628Z,11.93
2022-09-21T07:17:51.777Z,12.08
2022-09-21T07:20:18.832Z,12.21
2022-09-21T07:22:45.263Z,12.17
2022-09-21T07:25:11.835Z,12.20
2022-09-21T07:27:38.682Z,12.90
2022-09-21T07:30:06.428Z,13.14
2022-09-21T07:32:33.024Z,13.28
2022-09-21T07:34:59.542Z,12.92
2022-09-21T07:37:26.267Z,12.94
2022-09-21T07:39:53.391Z,13.91
2022-09-21T07:42:21.558Z,14.49
2022-09-21T07:44:48.447Z,14.94
2022-09-21T07:47:15.417Z,15.10
2022-09-21T07:49:42.688Z,15.41
2022-09-21T07:52:11.103Z,15.66
2022-09-21T07:54:37.902Z,15.57
2022-09-21T07:57:22.957Z,15.93
2022-09-21T07:59:49.433Z,16.18
2022-09-21T08:02:16.123Z,16.76
2022-09-21T08:04:42.633Z,16.41
2022-09-21T08:07:09.107Z,16.29
2022-09-21T08:09:35.592Z,16.58
2022-09-21T08:12:02.280Z,17.06
2022-09-21T08:14:29.360Z,17.13
2022-09-21T08:16:55.894Z,17.31
2022-09-21T08:19:25.840Z,17.37
2022-09-21T08:21:57.274Z,17.43
2022-09-21T08:24:26.745Z,17.58
2022-09-21T08:26:54.031Z,17.87
2022-09-21T08:29:20.525Z,18.04
2022-09-21T08:31:47.389Z,17.63
2022-09-21T08:34:14.343Z,17.73
2022-09-21T08:36:41.137Z,17.82
2022-09-21T08:39:08.453Z,18.10
2022-09-21T08:41:59.341Z,18.30
2022-09-21T08:44:33.599Z,18.64
2022-09-21T08:47:08.482Z,18.99
2022-09-21T08:49:36.881Z,19.24
2022-09-21T08:52:07.400Z,19.13
2022-09-21T08:54:51.780Z,18.39
2022-09-21T08:57:19.110Z,17.42
2022-09-21T08:59:47.266Z,18.08
2022-09-21T09:02:41.037Z,18.76
2022-09-21T09:05:48.651Z,19.03
2022-09-21T09:08:24.306Z,19.49
2022-09-21T09:11:09.353Z,19.95
2022-09-21T09:13:48.538Z,19.65
2022-09-21T09:16:21.184Z,19.11
2022-09-21T09:18:51.813Z,19.32
2022-09-21T09:21:30.255Z,19.57
2022-09-21T09:24:20.623Z,19.86
2022-09-21T09:27:02.115Z,20.26
2022-09-21T09:29:28.520Z,20.73
2022-09-21T09:31:55.985Z,20.07
2022-09-21T09:34:26.604Z,20.21
2022-09-21T09:36:59.600Z,19.92
2022-09-21T09:39:28.486Z,19.84
2022-09-21T09:42:07.238Z,20.23
2022-09-21T09:45:18.352Z,19.68
2022-09-21T09:47:50.715Z,19.91
2022-09-21T09:50:32.686Z,20.26
2022-09-21T09:53:15.141Z,19.98
2022-09-21T09:55:45.337Z,18.80
2022-09-21T09:58:31.007Z,19.65
2022-09-21T10:00:58.958Z,19.83
2022-09-21T10:03:27.172Z,19.55
2022-09-21T10:06:11.966Z,20.39
2022-09-21T10:08:39.921Z,20.97
2022-09-21T10:11:06.498Z,21.48
2022-09-21T10:13:38.318Z,20.88
2022-09-21T10:16:25.114Z,19.77
2022-09-21T10:18:58.899Z,20.39
2022-09-21T10:21:35.553Z,19.84
2022-09-21T10:24:05.073Z,20.92
2022-09-21T10:26:34.901Z,20.59
2022-09-21T10:29:07.287Z,21.13
2022-09-21T10:31:34.463Z,21.14
2022-09-21T10:34:04.034Z,21.35
2022-09-21T10:36:35.744Z,21.21
2022-09-21T10:39:19.530Z,20.29
2022-09-21T10:41:59.424Z,19.84
2022-09-21T10:44:38.711Z,20.46
2022-09-21T10:47:31.326Z,20.47
2022-09-21T10:50:00.685Z,19.58
2022-09-21T10:52:40.282Z,20.99
2022-09-21T10:55:14.554Z,21.28
2022-09-21T10:57:42.201Z,22.19
2022-09-21T11:00:35.700Z,20.65
2022-09-21T11:03:26.784Z,21.34
2022-09-21T11:05:53.659Z,20.36
2022-09-21T11:08:35.927Z,20.49
2022-09-21T11:11:30.361Z,21.07
2022-09-21T11:14:06.201Z,21.71
2022-09-21T11:16:37.708Z,21.69
2022-09-21T11:19:28.694Z,21.44
2022-09-21T11:22:05.830Z,21.96
2022-09-21T11:24:51.935Z,22.32
2022-09-21T11:27:22.956Z,22.43
2022-09-21T11:30:00.462Z,22.31
2022-09-21T11:32:40.528Z,21.17
2022-09-21T11:35:27.310Z,20.64
2022-09-21T11:38:20.685Z,22.04
2022-09-21T11:41:00.698Z,21.07
2022-09-21T11:43:36.119Z,20.72
2022-09-21T11:46:27.528Z,21.41
2022-09-21T11:49:00.062Z,20.74
2022-09-21T11:51:38.839Z,21.80
2022-09-21T11:54:31.698Z,22.42
2022-09-21T11:57:19.078Z,21.48
2022-09-21T12:00:07.545Z,21.21
2022-09-21T12:02:59.437Z,21.47
2022-09-21T12:06:04.712Z,22.59
2022-09-21T12:09:01.321Z,23.06
2022-09-21T12:12:03.701Z,22.99
2022-09-21T12:14:42.648Z,23.16
2022-09-21T12:17:27.663Z,21.22
2022-09-21T12:20:20.934Z,20.44
2022-09-21T12:22:49.542Z,19.77
2022-09-21T12:25:27.441Z,18.97
2022-09-21T12:28:11.529Z,18.51
2022-09-21T12:30:39.908Z,18.59
2022-09-21T12:33:14.060Z,18.00
2022-09-21T12:36:10.419Z,18.01
2022-09-21T12:38:43.048Z,18.24
2022-09-21T12:41:34.422Z,18.26
2022-09-21T12:44:17.720Z,18.97
2022-09-21T12:46:49.075Z,18.50
2022-09-21T12:49:31.537Z,18.25
2022-09-21T12:52:03.653Z,18.42
2022-09-21T12:54:42.201Z,18.91
2022-09-21T12:57:42.517Z,18.92
2022-09-21T13:00:12.360Z,18.70
2022-09-21T13:02:50.865Z,19.00
2022-09-21T13:05:23.364Z,18.39
2022-09-21T13:08:04.946Z,18.66
2022-09-21T13:10:55.717Z,18.87
2022-09-21T13:13:26.900Z,18.83
2022-09-21T13:15:53.752Z,18.96
2022-09-21T13:18:35.091Z,18.44
2022-09-21T13:21:22.094Z,18.59
2022-09-21T13:23:56.832Z,18.93
2022-09-21T13:26:51.437Z,18.79
2022-09-21T13:29:18.939Z,18.98
2022-09-21T13:32:04.448Z,20.29
2022-09-21T13:34:35.249Z,20.13
2022-09-21T13:37:20.060Z,20.63
2022-09-21T13:40:01.875Z,20.81
2022-09-21T13:42:28.517Z,20.50
2022-09-21T13:44:55.998Z,20.02
2022-09-21T13:47:33.681Z,20.26
2022-09-21T13:50:03.223Z,20.39
2022-09-21T13:52:40.453Z,20.60
2022-09-21T13:55:22.831Z,20.09
2022-09-21T13:57:54.373Z,19.51
2022-09-21T14:00:28.005Z,19.72
2022-09-21T14:02:58.803Z,19.45
2022-09-21T14:05:27.061Z,19.20
2022-09-21T14:08:00.167Z,20.19
2022-09-21T14:10:27.364Z,19.03
2022-09-21T14:12:53.856Z,19.35
2022-09-21T14:15:20.246Z,19.05
2022-09-21T14:18:16.788Z,19.01
2022-09-21T14:21:08.217Z,19.85
2022-09-21T14:23:36.630Z,20.10
2022-09-21T14:26:21.124Z,19.88
2022-09-21T14:28:51.356Z,20.06
2022-09-21T14:31:26.289Z,20.68
2022-09-21T14:33:59.394Z,20.34
2022-09-21T14:36:42.042Z,19.96
2022-09-21T14:39:39.185Z,19.32
2022-09-21T14:42:15.892Z,20.02
2022-09-21T14:44:42.600Z,20.40
2022-09-21T14:47:18.465Z,20.20
2022-09-21T14:50:05.568Z,20.14
2022-09-21T14:52:42.214Z,20.71
2022-09-21T14:55:22.634Z,20.83
2022-09-21T14:58:17.141Z,20.70
2022-09-21T15:00:46.251Z,20.63
2022-09-21T15:03:39.241Z,21.29
2022-09-21T15:06:28.700Z,21.02
2022-09-21T15:09:29.455Z,20.98
2022-09-21T15:12:01.996Z,20.61
2022-09-21T15:14:36.792Z,20.97
2022-09-21T15:17:24.355Z,20.70
2022-09-21T15:20:02.938Z,19.63
2022-09-21T15:22:47.711Z,20.19
2022-09-21T15:25:20.278Z,19.94
2022-09-21T15:27:47.440Z,20.19
2022-09-21T15:30:26.268Z,20.82
2022-09-21T15:32:58.126Z,20.94
2022-09-21T15:35:30.452Z,20.87
2022-09-21T15:38:00.946Z,20.93
2022-09-21T15:40:36.553Z,21.20
2022-09-21T15:43:09.019Z,20.84
2022-09-21T15:45:55.736Z,19.63
2022-09-21T15:48:26.091Z,19.33
2022-09-21T15:50:57.908Z,19.26
2022-09-21T15:53:36.475Z,19.07
2022-09-21T15:56:03.089Z,19.93
2022-09-21T15:58:37.298Z,20.00
2022-09-21T16:01:15.817Z,19.43
2022-09-21T16:03:45.364Z,19.46
2022-09-21T16:06:28.382Z,19.26
2022-09-21T16:08:55.118Z,19.26
2022-09-21T16:11:25.668Z,18.65
2022-09-21T16:14:32.053Z,18.52
2022-09-21T16:17:13.756Z,18.65
2022-09-21T16:19:44.580Z,18.16
2022-09-21T16:22:17.559Z,18.43
2022-09-21T16:24:52.829Z,18.21
2022-09-21T16:27:21.427Z,18.20
2022-09-21T16:29:50.177Z,18.20
2022-09-21T16:32:28.138Z,18.24
2022-09-21T16:35:31.461Z,18.35
2022-09-21T16:37:58.915Z,18.46
2022-09-21T16:40:28.815Z,18.18
2022-09-21T16:42:56.074Z,18.12
2022-09-21T16:45:29.672Z,18.33
2022-09-21T16:47:57.630Z,18.34
2022-09-21T16:50:24.534Z,18.75
2022-09-21T16:52:52.507Z,18.55
2022-09-21T16:55:22.419Z,18.43
2022-09-21T16:57:50.830Z,18.79
2022-09-21T17:00:22.101Z,18.91
2022-09-21T17:02:48.929Z,18.78
2022-09-21T17:05:39.210Z,18.83
2022-09-21T17:08:28.719Z,18.80
2022-09-21T17:22:22.480Z,18.68
2022-09-21T17:25:20.250Z,18.76
2022-09-21T17:27:54.446Z,18.71
2022-09-21T17:34:15.165Z,18.46
2022-09-21T17:37:00.631Z,18.62
2022-09-21T17:39:30.206Z,18.42
2022-09-21T17:45:43.061Z,17.34
2022-09-21T17:51:07.419Z,17.44
2022-09-21T17:53:41.876Z,17.28
2022-09-21T17:56:26.022Z,17.40
2022-09-21T17:59:14.701Z,17.48
2022-09-21T18:12:16.353Z,17.35
2022-09-21T18:14:55.772Z,17.44
2022-09-21T18:18:05.272Z,17.15
2022-09-21T18:32:06.716Z,16.92
2022-09-21T18:35:13.529Z,16.93
2022-09-21T18:37:55.161Z,16.74
2022-09-21T18:40:36.714Z,16.55
2022-09-21T18:43:36.417Z,16.36
2022-09-21T18:46:20.810Z,16.49
2022-09-21T18:49:13.775Z,16.54
2022-09-21T18:51:47.321Z,16.52
2022-09-21T18:54:20.849Z,16.47
2022-09-21T18:59:42.835Z,16.34
2022-09-21T19:06:11.984Z,16.25
2022-09-21T19:08:54.389Z,16.20
2022-09-21T19:11:52.202Z,16.13
2022-09-21T19:14:37.185Z,16.14
2022-09-21T19:17:20.784Z,16.08
2022-09-21T19:20:25.173Z,16.10
2022-09-21T19:23:00.259Z,15.74
2022-09-21T19:25:47.288Z,15.69
2022-09-21T19:28:53.521Z,15.88
2022-09-21T19:31:20.531Z,15.76
2022-09-21T19:33:51.651Z,15.69
2022-09-21T19:36:19.308Z,15.66
2022-09-21T19:38:45.973Z,15.77
2022-09-21T19:41:31.677Z,15.47
2022-09-21T19:44:35.899Z,15.55
2022-09-21T19:47:18.473Z,15.39
2022-09-21T19:49:56.617Z,15.42
2022-09-21T19:52:32.172Z,15.28
2022-09-21T19:55:17.266Z,15.26
2022-09-21T19:58:02.886Z,15.07
2022-09-21T20:00:30.218Z,15.12
2022-09-21T20:03:03.856Z,15.01
2022-09-21T20:05:51.617Z,14.71
2022-09-21T20:08:50.192Z,15.07
2022-09-21T20:11:23.520Z,15.09
2022-09-21T20:14:30.101Z,14.84
2022-09-21T20:17:10.660Z,14.74
2022-09-21T20:19:40.066Z,14.86
2022-09-21T20:22:17.433Z,14.84
2022-09-21T20:25:03.666Z,14.88
2022-09-21T20:27:55.504Z,14.77
2022-09-21T20:30:24.507Z,14.62
2022-09-21T20:32:53.733Z,14.79
2022-09-21T20:35:31.168Z,14.54
2022-09-21T20:38:02.184Z,14.49
2022-09-21T20:40:33.212Z,14.55
2022-09-21T20:43:03.916Z,14.33
2022-09-21T20:45:33.637Z,14.60
2022-09-21T20:48:15.731Z,14.51
2022-09-21T20:50:49.445Z,14.38
2022-09-21T20:53:16.742Z,14.46
2022-09-21T20:55:55.438Z,14.46
2022-09-21T20:58:22.392Z,14.59
2022-09-21T21:00:52.203Z,14.58
2022-09-21T21:03:20.596Z,14.59
2022-09-21T21:05:47.071Z,14.59
2022-09-21T21:08:13.536Z,14.46
2022-09-21T21:10:46.986Z,14.55
2022-09-21T21:13:13.698Z,14.54
2022-09-21T21:15:40.161Z,14.65
2022-09-21T21:18:10.157Z,14.53
2022-09-21T21:21:14.020Z,14.59
2022-09-21T21:23:59.064Z,14.46
2022-09-21T21:26:44.209Z,14.60
2022-09-21T21:29:15.004Z,14.58
2022-09-21T21:31:53.907Z,14.65
2022-09-21T21:34:20.764Z,14.71
2022-09-21T21:36:47.205Z,14.71
2022-09-21T21:39:14.331Z,14.82
2022-09-21T21:41:43.229Z,14.67
2022-09-21T21:44:11.520Z,14.62
2022-09-21T21:46:38.140Z,14.54
2022-09-21T21:49:05.045Z,14.59
2022-09-21T21:51:31.599Z,14.62
2022-09-21T21:53:58.240Z,14.31
2022-09-21T21:56:24.721Z,14.44
2022-09-21T21:58:56.134Z,14.42
2022-09-21T22:01:26.322Z,14.58
2022-09-21T22:03:58.162Z,14.54
2022-09-21T22:06:25.671Z,14.51
2022-09-21T22:08:52.744Z,14.56
2022-09-21T22:11:19.941Z,14.64
2022-09-21T22:13:47.347Z,14.51
2022-09-21T22:16:16.268Z,14.65
2022-09-21T22:18:43.346Z,14.42
2022-09-21T22:21:15.212Z,14.55
2022-09-21T22:23:42.196Z,14.50
2022-09-21T22:26:14.177Z,14.47
2022-09-21T22:28:42.512Z,14.54
2022-09-21T22:31:18.048Z,14.47
2022-09-21T22:33:45.164Z,14.42
2022-09-21T22:36:19.470Z,14.31
2022-09-21T22:38:46.559Z,13.96
2022-09-21T22:41:22.715Z,13.95
2022-09-21T22:43:51.300Z,13.96
2022-09-21T22:46:18.271Z,13.92
2022-09-21T22:48:45.514Z,13.87
2022-09-21T22:51:16.226Z,13.73
2022-09-21T22:53:43.252Z,13.65
2022-09-21T22:56:11.721Z,13.61
2022-09-21T22:58:42.111Z,13.45
2022-09-21T23:01:12.600Z,13.30
2022-09-21T23:03:40.508Z,13.29
2022-09-21T23:06:09.625Z,13.39
2022-09-21T23:08:36.375Z,13.12
2022-09-21T23:11:23.570Z,13.31
2022-09-21T23:13:50.037Z,13.19
2022-09-21T23:16:17.968Z,13.17
2022-09-21T23:18:45.945Z,12.85
2022-09-21T23:21:17.369Z,13.10
2022-09-21T23:24:05.834Z,13.07
2022-09-21T23:26:33.091Z,12.90
2022-09-21T23:29:05.334Z,12.68
2022-09-21T23:31:32.367Z,12.68
2022-09-21T23:34:00.610Z,12.67
2022-09-21T23:36:28.890Z,12.68
2022-09-21T23:38:55.680Z,12.56
2022-09-21T23:41:24.376Z,12.55
2022-09-21T23:43:51.573Z,12.57
2022-09-21T23:46:21.414Z,12.29
2022-09-21T23:48:48.550Z,12.39
2022-09-21T23:51:15.537Z,12.16
2022-09-21T23:53:42.613Z,12.13
2022-09-21T23:56:14.122Z,12.32
2022-09-21T23:58:40.659Z,12.06
